Time;durP1;ratioP1;P1;durP2;ratioP2;P2;SDS_P1;SDS_P2;PMS_P1;PMS_P2;Temp;Humidity;BMP_temperature;BMP_pressure;BME280_temperature;BME280_humidity;BME280_pressure;Samples;Min_cycle;Max_cycle;Signal;HPM_P1;HPM_P2
2021/07/16 00:02:18;;;;;;;10.15;5.05;;;;;;;24.92;42.16;101714.19;4416267;32;20030;-75
2021/07/16 00:04:44;;;;;;;12.02;5.32;;;;;;;24.87;41.92;101717.81;4418851;32;20105;-77
2021/07/16 00:07:10;;;;;;;13.75;5.30;;;;;;;24.80;42.20;101709.66;4419738;32;20038;-75
2021/07/16 00:09:36;;;;;;;12.93;5.28;;;;;;;24.85;42.32;101714.66;4419166;32;20512;-76
2021/07/16 00:12:02;;;;;;;12.15;5.45;;;;;;;24.68;42.62;101710.88;4420388;32;20070;-78
2021/07/16 00:14:28;;;;;;;12.95;5.47;;;;;;;24.67;42.72;101706.41;4422622;32;20022;-78
2021/07/16 00:16:54;;;;;;;12.50;5.00;;;;;;;24.63;42.89;101717.34;4420021;32;20092;-75
2021/07/16 00:19:21;;;;;;;12.93;4.87;;;;;;;24.67;42.66;101715.06;4425176;32;20115;-74
2021/07/16 00:21:46;;;;;;;9.68;4.93;;;;;;;24.68;42.85;101712.97;4425871;32;20039;-74
2021/07/16 00:24:12;;;;;;;10.93;4.75;;;;;;;24.54;42.81;101716.78;4417642;32;20100;-78
2021/07/16 00:26:39;;;;;;;13.82;4.85;;;;;;;24.46;42.94;101718.53;4417745;32;20030;-77
2021/07/16 00:29:04;;;;;;;14.15;5.45;;;;;;;24.69;42.52;101715.34;4417917;32;20044;-75
2021/07/16 00:31:31;;;;;;;10.02;4.12;;;;;;;24.47;42.88;101714.34;4416575;32;20065;-77
2021/07/16 00:33:56;;;;;;;10.13;4.87;;;;;;;24.45;42.45;101712.00;4418696;32;20435;-76
2021/07/16 00:36:22;;;;;;;9.50;4.00;;;;;;;24.38;42.45;101712.47;4424441;32;20065;-75
2021/07/16 00:38:48;;;;;;;8.32;3.80;;;;;;;24.22;42.91;101710.25;4420679;32;20037;-76
2021/07/16 00:41:14;;;;;;;10.30;4.43;;;;;;;24.18;42.92;101711.78;4421458;32;20053;-75
2021/07/16 00:43:39;;;;;;;12.93;4.97;;;;;;;24.30;42.81;101707.69;4418834;32;20088;-78
2021/07/16 00:46:05;;;;;;;13.75;5.00;;;;;;;24.20;43.14;101715.72;4418830;32;21119;-75
2021/07/16 00:48:31;;;;;;;11.18;5.65;;;;;;;24.24;43.24;101707.63;4417361;32;20065;-76
2021/07/16 00:50:57;;;;;;;11.55;5.12;;;;;;;24.22;43.41;101713.12;4415427;32;20069;-73
2021/07/16 00:53:22;;;;;;;13.88;5.35;;;;;;;24.19;43.65;101716.22;4419143;32;20459;-75
2021/07/16 00:55:48;;;;;;;10.60;5.10;;;;;;;24.24;43.60;101707.63;4418133;32;20073;-77
2021/07/16 00:58:16;;;;;;;8.27;4.28;;;;;;;24.38;43.36;101706.72;4418867;32;20497;-77
2021/07/16 01:00:43;;;;;;;10.45;4.70;;;;;;;24.37;43.34;101702.28;4414277;32;20035;-75
2021/07/16 01:03:09;;;;;;;8.88;4.43;;;;;;;24.30;43.45;101711.34;4417062;32;20855;-73
2021/07/16 01:05:36;;;;;;;12.48;5.03;;;;;;;24.11;43.53;101713.03;4418001;32;20448;-73
2021/07/16 01:08:03;;;;;;;10.18;4.47;;;;;;;24.10;43.38;101717.22;4418508;32;20029;-76
2021/07/16 01:10:31;;;;;;;6.80;3.50;;;;;;;24.12;43.30;101711.75;4420559;32;20033;-76
2021/07/16 01:12:57;;;;;;;11.02;4.00;;;;;;;24.06;43.19;101716.66;4418297;32;20146;-77
2021/07/16 01:15:26;;;;;;;9.52;3.70;;;;;;;24.18;43.04;101714.66;4417445;32;20030;-74
2021/07/16 01:17:53;;;;;;;10.45;3.42;;;;;;;24.25;42.90;101711.31;4422021;32;20070;-74
2021/07/16 01:20:25;;;;;;;7.55;3.97;;;;;;;24.03;43.32;101703.28;4418432;32;20096;-74
2021/07/16 01:22:53;;;;;;;8.77;3.20;;;;;;;24.22;42.81;101710.25;4417472;32;20148;-74
2021/07/16 01:25:21;;;;;;;6.43;3.60;;;;;;;23.89;43.24;101701.28;4419500;32;20399;-76
2021/07/16 01:27:49;;;;;;;7.78;3.53;;;;;;;23.97;42.97;101711.06;4420273;32;20064;-76
2021/07/16 01:30:18;;;;;;;8.55;3.28;;;;;;;23.86;43.20;101713.00;4418959;32;20078;-75
2021/07/16 01:32:44;;;;;;;11.07;3.53;;;;;;;23.91;43.17;101713.09;4414153;32;20066;-75
2021/07/16 01:35:11;;;;;;;10.35;3.58;;;;;;;23.67;43.67;101721.19;4417618;32;20131;-77
2021/07/16 01:37:37;;;;;;;8.82;4.40;;;;;;;23.76;43.61;101708.72;4416666;32;20438;-77
2021/07/16 01:40:06;;;;;;;8.85;4.12;;;;;;;23.65;43.84;101711.50;4417308;32;20376;-77
2021/07/16 01:42:35;;;;;;;10.88;3.95;;;;;;;23.87;43.51;101706.75;4417210;32;20072;-76
2021/07/16 01:45:04;;;;;;;6.47;3.90;;;;;;;23.77;43.86;101713.97;4419326;32;20052;-74
2021/07/16 01:47:31;;;;;;;7.53;3.85;;;;;;;23.75;44.01;101710.84;4418027;32;20077;-74
2021/07/16 01:49:56;;;;;;;12.15;4.40;;;;;;;23.65;44.14;101708.63;4417025;32;20062;-77
2021/07/16 01:52:22;;;;;;;14.25;4.93;;;;;;;23.64;44.36;101718.53;4419788;32;20049;-75
2021/07/16 01:54:47;;;;;;;16.60;6.72;;;;;;;23.72;44.46;101720.47;4418955;32;20551;-75
2021/07/16 01:57:13;;;;;;;14.98;6.03;;;;;;;23.63;45.10;101719.84;4420769;32;20045;-74
2021/07/16 01:59:39;;;;;;;14.77;5.90;;;;;;;23.71;44.93;101707.38;4416930;32;20108;-74
2021/07/16 02:02:04;;;;;;;15.50;6.75;;;;;;;23.52;45.89;101714.75;4415237;32;20108;-75
2021/07/16 02:04:30;;;;;;;14.95;5.85;;;;;;;23.68;45.45;101708.37;4414708;32;20018;-75
2021/07/16 02:06:57;;;;;;;12.37;5.75;;;;;;;23.57;45.65;101705.41;4420474;32;20088;-76
2021/07/16 02:09:23;;;;;;;7.57;4.47;;;;;;;23.50;45.45;101708.72;4414220;32;20423;-75
2021/07/16 02:11:49;;;;;;;8.15;3.85;;;;;;;23.42;45.19;101710.47;4415909;32;20106;-74
2021/07/16 02:14:15;;;;;;;7.72;3.70;;;;;;;23.31;44.98;101716.84;4421102;32;20070;-74
2021/07/16 02:16:40;;;;;;;12.27;3.40;;;;;;;23.31;44.81;101719.72;4416956;32;20451;-75
2021/07/16 02:19:06;;;;;;;9.40;3.40;;;;;;;23.29;44.83;101713.69;4417638;32;20077;-76
2021/07/16 02:21:32;;;;;;;7.10;3.78;;;;;;;23.38;44.56;101709.91;4416234;32;20122;-75
2021/07/16 02:23:57;;;;;;;7.05;3.70;;;;;;;23.40;44.40;101704.41;4417169;32;20026;-75
2021/07/16 02:26:23;;;;;;;9.52;3.65;;;;;;;23.26;44.64;101711.81;4418428;32;20038;-74
2021/07/16 02:28:48;;;;;;;7.45;3.60;;;;;;;23.28;44.59;101705.56;4419296;32;20512;-74
2021/07/16 02:31:14;;;;;;;7.35;4.12;;;;;;;23.08;45.08;101705.56;4418619;32;20070;-76
2021/07/16 02:33:41;;;;;;;10.02;3.60;;;;;;;23.21;44.82;101703.91;4416630;32;20073;-73
2021/07/16 02:36:08;;;;;;;11.00;3.58;;;;;;;23.18;44.79;101702.06;4419665;32;20088;-76
2021/07/16 02:38:34;;;;;;;11.48;3.97;;;;;;;23.33;44.72;101710.59;4421446;32;20105;-75
2021/07/16 02:41:00;;;;;;;9.18;3.33;;;;;;;23.04;45.13;101702.13;4413458;32;20070;-74
2021/07/16 02:43:27;;;;;;;12.82;3.83;;;;;;;23.00;45.16;101702.34;4418440;32;20060;-74
2021/07/16 02:45:53;;;;;;;7.72;3.58;;;;;;;23.14;45.02;101715.03;4418761;32;20655;-74
2021/07/16 02:48:18;;;;;;;8.98;3.40;;;;;;;23.06;45.09;101699.53;4419067;32;20128;-76
2021/07/16 02:50:47;;;;;;;6.78;3.87;;;;;;;23.07;45.06;101704.00;4415527;32;20097;-74
2021/07/16 02:53:15;;;;;;;8.80;4.00;;;;;;;23.25;44.74;101709.44;4414852;32;20038;-74
2021/07/16 02:55:42;;;;;;;9.65;4.07;;;;;;;23.27;44.86;101709.75;4416931;32;20045;-74
2021/07/16 02:58:09;;;;;;;8.80;3.67;;;;;;;23.22;44.96;101716.97;4421766;32;20046;-74
2021/07/16 03:00:36;;;;;;;10.02;4.20;;;;;;;23.21;45.02;101708.84;4415156;32;20034;-76
2021/07/16 03:03:02;;;;;;;9.02;4.20;;;;;;;23.22;44.93;101708.34;4415901;32;20078;-76
2021/07/16 03:05:30;;;;;;;9.82;4.00;;;;;;;23.10;45.23;101706.62;4417745;32;20038;-74
2021/07/16 03:07:57;;;;;;;9.27;4.43;;;;;;;23.16;45.25;101703.81;4419065;32;21409;-73
2021/07/16 03:13:01;;;;;;;15.37;3.93;;;;;;;23.45;44.94;101706.56;3952946;32;15855622;-75
2021/07/16 03:15:27;;;;;;;11.63;4.53;;;;;;;23.45;44.94;101706.56;4422226;32;20062;-77
2021/07/16 03:17:53;;;;;;;10.32;3.75;;;;;;;23.03;45.38;101694.78;4433451;32;20149;-76
2021/07/16 03:20:26;;;;;;;8.90;3.90;;;;;;;22.86;45.88;101696.66;4438190;32;20063;-75
2021/07/16 03:22:53;;;;;;;10.07;3.83;;;;;;;23.04;45.51;101705.00;4436236;32;20369;-76
2021/07/16 03:25:19;;;;;;;8.18;3.60;;;;;;;22.96;45.46;101704.63;4437588;32;20059;-74
2021/07/16 03:27:46;;;;;;;8.10;3.65;;;;;;;22.73;45.94;101702.72;4437348;32;20041;-75
2021/07/16 03:30:16;;;;;;;8.07;4.18;;;;;;;22.83;45.78;101700.53;4422900;32;20358;-75
2021/07/16 03:32:42;;;;;;;11.60;4.30;;;;;;;23.01;45.54;101694.53;4433062;32;20056;-75
2021/07/16 03:35:09;;;;;;;10.57;3.92;;;;;;;22.75;45.90;101690.75;4435960;32;20196;-77
2021/07/16 03:37:36;;;;;;;12.50;4.72;;;;;;;22.91;45.94;101684.44;4435504;32;20719;-75
2021/07/16 03:40:04;;;;;;;7.80;4.00;;;;;;;22.86;46.00;101676.56;4432835;32;20029;-77
2021/07/16 03:42:29;;;;;;;9.30;4.53;;;;;;;22.84;46.13;101684.87;4433700;32;20033;-77
2021/07/16 03:44:55;;;;;;;12.45;3.95;;;;;;;22.79;45.93;101685.59;4438097;32;20104;-77
2021/07/16 03:47:21;;;;;;;8.15;4.20;;;;;;;22.72;46.30;101691.75;4437979;32;20448;-75
2021/07/16 03:49:48;;;;;;;12.32;4.10;;;;;;;22.76;46.04;101690.25;4436494;32;20068;-75
2021/07/16 03:52:14;;;;;;;8.05;4.05;;;;;;;22.91;45.84;101704.53;4434413;32;21510;-76
2021/07/16 03:54:41;;;;;;;7.55;3.47;;;;;;;22.77;45.97;101693.94;4434551;32;20076;-75
2021/07/16 03:57:07;;;;;;;10.70;4.15;;;;;;;22.88;45.95;101699.81;4436584;32;20495;-77
2021/07/16 03:59:34;;;;;;;7.95;4.03;;;;;;;22.75;46.22;101699.38;4435501;32;20135;-77
2021/07/16 04:02:01;;;;;;;10.20;3.90;;;;;;;22.68;46.33;101699.78;4424366;32;20464;-74
2021/07/16 04:04:27;;;;;;;8.00;4.00;;;;;;;22.79;46.11;101700.72;4419094;32;20428;-76
2021/07/16 04:06:54;;;;;;;7.80;4.28;;;;;;;22.78;46.08;101693.44;4422705;32;21520;-77
2021/07/16 04:09:36;;;;;;;10.05;4.53;;;;;;;22.77;46.06;101691.81;4420988;32;21107;-77
2021/07/16 04:12:07;;;;;;;12.45;4.43;;;;;;;22.85;46.11;101701.59;4416693;32;20094;-76
2021/07/16 04:14:36;;;;;;;10.48;4.50;;;;;;;22.88;45.92;101702.66;4421255;32;20058;-76
2021/07/16 04:17:06;;;;;;;5.93;3.62;;;;;;;22.99;45.86;101699.97;4411739;32;20422;-75
2021/07/16 04:19:32;;;;;;;8.82;4.37;;;;;;;22.92;46.06;101698.28;4419487;32;20503;-75
2021/07/16 04:21:58;;;;;;;7.70;4.78;;;;;;;22.79;46.26;101700.72;4417826;32;20041;-75
2021/07/16 04:24:24;;;;;;;13.93;4.28;;;;;;;22.75;46.42;101699.38;4409532;32;20023;-77
2021/07/16 04:26:50;;;;;;;6.45;4.22;;;;;;;22.89;46.13;101701.41;4410199;32;20168;-75
2021/07/16 04:29:16;;;;;;;8.93;4.90;;;;;;;22.77;46.42;101700.44;4411045;32;20081;-76
2021/07/16 04:31:41;;;;;;;13.10;4.20;;;;;;;22.79;46.38;101703.59;4407792;32;20043;-76
2021/07/16 04:34:07;;;;;;;7.25;4.22;;;;;;;22.92;46.18;101701.16;4402340;32;20109;-79
2021/07/16 04:36:33;;;;;;;7.50;4.53;;;;;;;22.91;46.17;101704.53;4408431;32;20470;-77
2021/07/16 04:38:59;;;;;;;9.20;4.47;;;;;;;22.88;46.26;101705.53;4413322;32;20072;-75
2021/07/16 04:41:24;;;;;;;9.20;4.85;;;;;;;22.92;46.29;101706.12;4407843;32;20105;-77
2021/07/16 04:43:50;;;;;;;9.20;4.62;;;;;;;22.96;46.07;101721.87;4408054;32;20026;-77
2021/07/16 04:46:16;;;;;;;8.90;4.57;;;;;;;23.02;46.11;101717.00;4411424;32;20029;-75
2021/07/16 04:48:42;;;;;;;9.02;4.87;;;;;;;23.01;46.15;101714.63;4412622;32;20113;-77
2021/07/16 04:51:07;;;;;;;11.30;5.90;;;;;;;23.15;45.89;101723.16;4409177;32;20235;-77
2021/07/16 04:53:33;;;;;;;10.85;6.18;;;;;;;23.10;46.05;101714.47;4407722;32;21849;-76
2021/07/16 04:55:58;;;;;;;11.90;6.32;;;;;;;23.11;45.93;101718.91;4409799;32;20149;-75
2021/07/16 04:58:24;;;;;;;10.73;5.18;;;;;;;23.32;45.61;101714.78;4403075;32;20025;-74
2021/07/16 05:00:50;;;;;;;9.73;4.78;;;;;;;23.34;45.63;101715.84;4407648;32;20064;-77
2021/07/16 05:03:17;;;;;;;12.30;5.20;;;;;;;23.23;45.70;101715.69;4405894;32;20360;-75
2021/07/16 05:05:42;;;;;;;12.52;5.40;;;;;;;23.50;45.21;101725.94;4409934;32;20235;-75
2021/07/16 05:08:08;;;;;;;17.00;6.37;;;;;;;23.63;44.92;101728.44;4408263;32;20149;-77
2021/07/16 05:10:34;;;;;;;16.85;6.62;;;;;;;23.67;44.93;101729.81;4410167;32;20050;-77
2021/07/16 05:12:59;;;;;;;12.85;5.87;;;;;;;23.78;44.77;101724.19;4408750;32;20094;-78
2021/07/16 05:15:25;;;;;;;15.05;6.43;;;;;;;23.91;44.70;101724.59;4408755;32;20042;-77
2021/07/16 05:17:51;;;;;;;13.45;5.87;;;;;;;23.98;44.57;101729.09;4407539;32;20083;-75
2021/07/16 05:20:17;;;;;;;12.27;5.90;;;;;;;24.10;44.25;101728.72;4409377;32;20078;-76
2021/07/16 05:22:43;;;;;;;10.13;6.12;;;;;;;24.26;44.05;101733.81;4407230;32;20441;-76
2021/07/16 05:25:10;;;;;;;14.87;6.30;;;;;;;24.38;43.75;101738.37;4407413;32;20034;-77
2021/07/16 05:27:38;;;;;;;13.27;6.15;;;;;;;24.42;43.70;101736.03;4411140;32;20092;-75
2021/07/16 05:30:05;;;;;;;13.75;6.45;;;;;;;24.52;43.40;101743.19;4405439;32;20430;-78
2021/07/16 05:32:30;;;;;;;12.45;6.40;;;;;;;24.66;43.23;101748.03;4408059;32;20069;-75
2021/07/16 05:34:56;;;;;;;13.30;6.65;;;;;;;24.66;43.03;101748.03;4407570;32;20073;-78
2021/07/16 05:37:22;;;;;;;13.57;6.87;;;;;;;24.79;42.86;101750.47;4408975;32;20021;-75
2021/07/16 05:39:47;;;;;;;20.08;7.45;;;;;;;24.93;42.54;101749.50;4407420;32;20038;-76
2021/07/16 05:42:13;;;;;;;18.98;7.97;;;;;;;24.98;42.18;101743.78;4410865;32;20517;-77
2021/07/16 05:44:39;;;;;;;14.18;7.25;;;;;;;25.11;42.05;101754.84;4407695;32;20101;-75
2021/07/16 05:47:05;;;;;;;18.17;6.53;;;;;;;25.24;41.77;101753.09;4410553;32;20064;-75
2021/07/16 05:49:32;;;;;;;20.00;8.13;;;;;;;25.35;41.53;101758.91;4406915;32;20110;-77
2021/07/16 05:51:58;;;;;;;16.58;7.47;;;;;;;25.18;42.04;101754.34;4411045;32;20159;-77
2021/07/16 05:54:24;;;;;;;18.45;7.50;;;;;;;25.34;41.81;101768.87;4409381;32;20021;-76
2021/07/16 05:56:50;;;;;;;12.98;6.80;;;;;;;25.58;41.18;101756.91;4409837;32;20085;-76
2021/07/16 05:59:15;;;;;;;12.80;6.45;;;;;;;25.71;41.00;101759.34;4407536;32;20678;-78
2021/07/16 06:01:41;;;;;;;11.68;5.80;;;;;;;25.79;40.85;101772.72;4405474;32;20089;-77
2021/07/16 06:04:10;;;;;;;14.20;6.47;;;;;;;25.83;40.53;101776.13;4404823;32;20088;-77
2021/07/16 06:06:38;;;;;;;16.15;6.93;;;;;;;26.00;40.00;101771.22;4404600;32;20422;-75
2021/07/16 06:09:05;;;;;;;11.20;6.20;;;;;;;26.26;39.72;101779.66;4406941;32;20098;-76
2021/07/16 06:11:32;;;;;;;17.00;6.75;;;;;;;26.31;39.54;101781.75;4408619;32;20167;-75
2021/07/16 06:13:59;;;;;;;16.60;5.90;;;;;;;26.29;39.53;101782.28;4408169;32;20454;-76
2021/07/16 06:16:25;;;;;;;13.50;7.10;;;;;;;26.22;39.73;101784.88;4408988;32;20069;-77
2021/07/16 06:18:50;;;;;;;17.20;8.30;;;;;;;26.17;39.94;101777.81;4407470;32;20719;-75
2021/07/16 06:21:16;;;;;;;13.27;6.90;;;;;;;26.47;39.48;101783.84;4405835;32;20061;-74
2021/07/16 06:23:42;;;;;;;15.38;6.72;;;;;;;26.61;39.21;101783.63;4408081;32;20106;-77
2021/07/16 06:26:08;;;;;;;12.73;6.45;;;;;;;26.77;38.43;101784.94;4407039;32;20044;-76
2021/07/16 06:28:34;;;;;;;15.32;7.22;;;;;;;26.86;38.76;101787.53;4408574;32;20077;-77
2021/07/16 06:30:59;;;;;;;16.87;7.07;;;;;;;26.72;39.02;101794.41;4406142;32;20148;-76
2021/07/16 06:33:26;;;;;;;15.18;7.40;;;;;;;26.95;38.29;101795.94;4408100;32;20073;-77
2021/07/16 06:35:53;;;;;;;10.15;6.07;;;;;;;26.98;38.29;101794.88;4403960;32;20139;-78
2021/07/16 06:38:18;;;;;;;20.25;7.45;;;;;;;27.08;38.33;101790.38;4405598;32;20035;-73
2021/07/16 06:40:44;;;;;;;21.10;7.62;;;;;;;27.16;38.20;101794.31;4404541;32;20034;-75
2021/07/16 06:43:10;;;;;;;18.98;8.00;;;;;;;27.35;37.83;101800.31;4405890;32;20041;-74
2021/07/16 06:45:37;;;;;;;18.92;8.10;;;;;;;27.43;37.86;101790.59;4406750;32;20066;-74
2021/07/16 06:48:05;;;;;;;16.08;7.78;;;;;;;27.64;37.56;101797.56;4408824;32;20315;-76
2021/07/16 06:50:31;;;;;;;18.30;8.20;;;;;;;27.67;37.71;101793.63;4403750;32;20073;-77
2021/07/16 06:52:58;;;;;;;16.40;6.55;;;;;;;27.81;37.42;101791.72;4401891;32;20038;-76
2021/07/16 06:55:24;;;;;;;15.90;7.40;;;;;;;27.90;37.15;101795.13;4403612;32;20070;-74
2021/07/16 06:57:50;;;;;;;22.95;7.07;;;;;;;27.92;37.48;101797.47;4403873;32;20555;-77
2021/07/16 07:00:16;;;;;;;15.55;6.97;;;;;;;28.13;37.05;101793.66;4406860;32;20073;-75
2021/07/16 07:02:42;;;;;;;16.90;7.05;;;;;;;28.24;36.94;101795.69;4402885;32;20076;-79
2021/07/16 07:05:09;;;;;;;14.05;6.43;;;;;;;28.36;36.73;101788.50;4401158;32;20175;-74
2021/07/16 07:07:35;;;;;;;15.50;6.47;;;;;;;28.26;37.04;101790.91;4402663;32;20495;-75
2021/07/16 07:10:01;;;;;;;19.08;6.97;;;;;;;27.40;38.57;101788.75;4395342;32;20357;-75
2021/07/16 07:12:26;;;;;;;13.23;6.10;;;;;;;28.72;36.37;101799.53;4404194;32;20130;-76
2021/07/16 07:14:53;;;;;;;10.75;5.43;;;;;;;28.70;36.44;101796.41;4400550;32;20072;-77
2021/07/16 07:17:20;;;;;;;15.77;6.53;;;;;;;28.90;36.16;101790.13;4403926;32;20030;-76
2021/07/16 07:19:46;;;;;;;15.98;6.20;;;;;;;29.26;35.74;101795.87;4403886;32;20474;-75
2021/07/16 07:22:11;;;;;;;12.80;5.72;;;;;;;29.26;35.84;101790.84;4404179;32;20117;-75
2021/07/16 07:24:37;;;;;;;14.20;5.93;;;;;;;29.42;35.64;101798.53;4406261;32;20104;-75
2021/07/16 07:27:03;;;;;;;14.93;5.45;;;;;;;29.67;35.09;101805.94;4401621;32;20247;-76
2021/07/16 07:29:31;;;;;;;12.13;5.12;;;;;;;29.68;35.43;101803.81;4403547;32;20489;-75
2021/07/16 07:31:57;;;;;;;17.10;5.80;;;;;;;29.74;35.50;101804.50;4400578;32;20580;-73
2021/07/16 07:34:23;;;;;;;12.02;5.30;;;;;;;29.78;35.65;101799.97;4400712;32;20081;-76
2021/07/16 07:36:49;;;;;;;7.95;4.50;;;;;;;30.11;35.12;101798.72;4402131;32;20116;-74
2021/07/16 07:39:16;;;;;;;11.12;5.05;;;;;;;30.09;35.29;101804.28;4402274;32;20066;-75
2021/07/16 07:41:47;;;;;;;13.10;5.07;;;;;;;30.26;35.03;101802.75;4400743;32;20122;-73
2021/07/16 07:44:15;;;;;;;14.30;4.68;;;;;;;30.49;34.86;101806.84;4403070;32;20089;-74
2021/07/16 07:46:41;;;;;;;13.50;4.82;;;;;;;30.59;34.54;101810.13;4406132;32;20053;-76
2021/07/16 07:49:10;;;;;;;9.38;4.12;;;;;;;30.18;35.34;101803.88;4405838;32;20034;-73
2021/07/16 07:51:38;;;;;;;11.57;4.35;;;;;;;30.48;34.90;101799.47;4401767;32;20096;-74
2021/07/16 07:54:05;;;;;;;11.30;3.75;;;;;;;30.32;35.45;101802.66;4402405;32;20111;-75
2021/07/16 07:56:32;;;;;;;9.05;3.80;;;;;;;30.10;35.87;101803.72;4403820;32;20078;-72
2021/07/16 07:58:59;;;;;;;9.50;3.95;;;;;;;30.53;35.12;101807.28;4403986;32;20068;-73
2021/07/16 08:01:24;;;;;;;15.80;4.47;;;;;;;30.95;34.57;101798.97;4402605;32;20064;-72
2021/07/16 08:03:50;;;;;;;12.25;4.53;;;;;;;30.97;34.44;101802.87;4405953;32;20038;-72
2021/07/16 08:06:17;;;;;;;17.92;5.30;;;;;;;31.24;34.12;101812.41;4402924;32;20078;-77
2021/07/16 08:08:43;;;;;;;12.50;4.72;;;;;;;31.37;33.98;101807.41;4407327;32;20085;-75
2021/07/16 08:11:09;;;;;;;10.90;3.83;;;;;;;31.39;33.76;101815.56;4404631;32;20206;-73
2021/07/16 08:13:36;;;;;;;10.88;3.70;;;;;;;31.05;34.33;101808.81;4406541;32;20059;-72
2021/07/16 08:16:03;;;;;;;6.30;3.15;;;;;;;31.28;34.20;101804.94;4406597;32;20941;-73
2021/07/16 08:18:29;;;;;;;10.23;3.87;;;;;;;31.70;33.56;101818.34;4407399;32;20045;-76
2021/07/16 08:20:56;;;;;;;14.30;4.00;;;;;;;31.67;33.17;101810.75;4403586;32;20058;-74
2021/07/16 08:23:22;;;;;;;7.65;3.42;;;;;;;31.96;32.83;101815.41;4407516;32;20093;-74
2021/07/16 08:25:47;;;;;;;6.32;2.90;;;;;;;32.10;32.55;101819.87;4402465;32;20086;-74
2021/07/16 08:28:13;;;;;;;7.43;3.05;;;;;;;32.14;32.38;101823.22;4403935;32;20085;-77
2021/07/16 08:30:39;;;;;;;7.47;3.08;;;;;;;32.32;32.24;101822.25;4407112;32;20045;-77
2021/07/16 08:33:06;;;;;;;5.85;3.65;;;;;;;32.47;31.92;101821.66;4403599;32;20621;-75
2021/07/16 08:35:31;;;;;;;10.70;3.95;;;;;;;32.44;32.23;101823.59;4396403;32;20674;-76
2021/07/16 08:37:59;;;;;;;9.63;3.30;;;;;;;32.62;31.91;101821.81;4404019;32;20074;-76
2021/07/16 08:40:25;;;;;;;7.03;3.22;;;;;;;32.70;31.65;101818.97;4404390;32;20041;-75
2021/07/16 08:42:51;;;;;;;8.38;3.17;;;;;;;32.92;31.50;101822.12;4399668;32;20096;-76
2021/07/16 08:45:18;;;;;;;9.02;3.45;;;;;;;33.30;30.94;101834.88;4400862;32;20199;-75
2021/07/16 08:47:44;;;;;;;7.82;3.08;;;;;;;33.30;30.77;101825.31;4401382;32;20433;-76
2021/07/16 08:50:12;;;;;;;6.62;2.90;;;;;;;33.24;30.72;101828.41;4400991;32;20150;-77
2021/07/16 08:52:40;;;;;;;10.63;3.05;;;;;;;33.83;30.15;101832.28;4404479;32;20154;-76
2021/07/16 08:55:07;;;;;;;9.98;2.85;;;;;;;33.69;30.17;101828.72;4403711;32;20081;-77
2021/07/16 08:57:32;;;;;;;5.97;2.40;;;;;;;34.00;29.66;101827.53;4402410;32;20083;-79
2021/07/16 08:59:59;;;;;;;5.22;2.72;;;;;;;33.70;29.69;101833.19;4388828;32;20482;-77
2021/07/16 09:02:27;;;;;;;9.98;2.85;;;;;;;34.03;29.44;101826.37;4401085;32;20433;-77
2021/07/16 09:04:59;;;;;;;5.82;3.08;;;;;;;34.34;28.98;101821.41;4400592;32;20510;-77
2021/07/16 09:07:25;;;;;;;13.23;2.95;;;;;;;34.46;29.13;101837.25;4400936;32;20132;-78
2021/07/16 09:09:51;;;;;;;6.95;2.75;;;;;;;34.50;28.66;101828.88;4401992;32;20045;-78
2021/07/16 09:12:16;;;;;;;9.23;2.80;;;;;;;34.62;28.52;101840.97;4386348;32;20074;-79
2021/07/16 09:14:42;;;;;;;4.95;2.20;;;;;;;34.94;28.09;101836.16;4389514;32;20047;-79
2021/07/16 09:17:11;;;;;;;7.55;2.25;;;;;;;35.02;28.13;101836.94;4399092;32;21070;-77
2021/07/16 09:19:47;;;;;;;7.35;2.50;;;;;;;35.74;27.29;101848.97;4403019;32;20070;-78
2021/07/16 09:22:17;;;;;;;6.80;2.20;;;;;;;35.90;26.74;101839.56;4401419;32;20124;-78
2021/07/16 09:24:50;;;;;;;6.80;2.37;;;;;;;35.63;27.25;101841.38;4401771;32;20077;-75
2021/07/16 09:27:37;;;;;;;6.57;2.45;;;;;;;36.09;26.80;101844.94;4402180;32;21149;-77
2021/07/16 09:30:27;;;;;;;5.35;2.67;;;;;;;36.00;26.57;101839.72;4398262;32;20337;-77
2021/07/16 09:32:58;;;;;;;10.65;2.78;;;;;;;36.17;26.57;101839.84;4397993;32;20797;-78
2021/07/16 09:35:32;;;;;;;6.78;2.90;;;;;;;36.30;26.46;101845.47;4402607;32;20104;-75
2021/07/16 09:46:07;;;;;;;9.80;2.65;;;;;;;38.10;24.40;101849.00;3975223;32;15022370;-78
2021/07/16 09:54:00;;;;;;;9.35;2.90;;;;;;;38.38;24.17;101842.53;3975819;32;15025192;-76
2021/07/16 09:56:28;;;;;;;9.30;2.70;;;;;;;38.38;24.17;101842.53;4432318;32;20084;-74
2021/07/16 09:59:17;;;;;;;4.93;2.87;;;;;;;37.98;24.49;101854.56;4433467;32;20084;-74
2021/07/16 10:01:48;;;;;;;10.10;2.35;;;;;;;38.47;23.92;101858.66;4426675;32;20485;-74
2021/07/16 10:04:17;;;;;;;4.68;2.42;;;;;;;38.67;23.86;101861.13;4424634;32;20413;-75
2021/07/16 10:06:44;;;;;;;7.22;2.28;;;;;;;38.39;23.76;101863.87;4427828;32;20135;-76
2021/07/16 10:09:10;;;;;;;6.68;2.92;;;;;;;38.06;24.20;101866.25;4424266;32;20460;-76
2021/07/16 10:11:37;;;;;;;8.02;2.40;;;;;;;37.70;24.55;101857.28;4426238;32;20115;-78
2021/07/16 10:14:04;;;;;;;7.53;3.00;;;;;;;38.17;24.12;101856.94;4422616;32;20085;-78
2021/07/16 10:16:30;;;;;;;4.62;2.97;;;;;;;38.53;23.66;101865.84;4425762;32;20074;-78
2021/07/16 10:18:57;;;;;;;5.93;2.60;;;;;;;39.26;23.03;101869.59;4425941;32;20022;-76
2021/07/16 10:21:23;;;;;;;7.43;3.22;;;;;;;39.38;22.61;101876.44;4426228;32;20060;-78
2021/07/16 10:23:51;;;;;;;4.97;2.92;;;;;;;39.14;22.79;101872.34;4427187;32;20552;-78
2021/07/16 10:26:21;;;;;;;6.20;2.70;;;;;;;39.24;23.01;101884.19;4425496;32;20073;-76
2021/07/16 10:28:47;;;;;;;5.72;2.80;;;;;;;39.84;22.02;101867.59;4425555;32;20505;-75
2021/07/16 10:36:50;;;;;;;6.35;2.80;;;;;;;40.66;21.84;101877.59;3973803;32;15022820;-76
2021/07/16 10:39:21;;;;;;;7.93;3.58;;;;;;;40.66;21.84;101877.59;4428459;32;20073;-75
2021/07/16 10:41:47;;;;;;;4.50;2.72;;;;;;;40.75;21.55;101867.16;4432964;32;20449;-75
2021/07/16 10:44:34;;;;;;;4.50;2.75;;;;;;;40.56;21.48;101870.16;4431319;32;20107;-76
2021/07/16 10:47:00;;;;;;;5.82;2.80;;;;;;;41.17;20.90;101870.28;4428878;32;20134;-75
2021/07/16 10:49:53;;;;;;;7.70;2.80;;;;;;;41.51;20.35;101884.56;4431798;32;21259;-75
2021/07/16 10:52:48;;;;;;;6.65;2.30;;;;;;;41.63;20.06;101873.59;4425855;32;20145;-76
2021/07/16 10:55:16;;;;;;;4.97;2.40;;;;;;;41.21;20.61;101880.19;4426404;32;20391;-76
2021/07/16 10:57:44;;;;;;;7.37;2.62;;;;;;;41.19;20.47;101876.31;4432814;32;20371;-75
2021/07/16 11:00:13;;;;;;;6.93;2.00;;;;;;;40.59;20.90;101875.59;4433053;32;20134;-77
2021/07/16 11:02:47;;;;;;;7.40;2.20;;;;;;;40.93;20.63;101874.41;4417161;32;20054;-75
2021/07/16 11:11:03;;;;;;;5.95;2.50;;;;;;;40.91;20.64;101892.75;3976125;32;15025815;-75
2021/07/16 11:13:34;;;;;;;4.30;1.95;;;;;;;40.91;20.64;101892.75;4428076;32;20117;-78
2021/07/16 11:27:07;;;;;;;6.43;2.95;;;;;;;42.67;19.23;101886.63;3976222;32;15023940;-76
2021/07/16 11:29:38;;;;;;;6.97;2.35;;;;;;;42.67;19.23;101886.63;4428194;32;20464;-77
2021/07/16 11:34:56;;;;;;;3.40;2.03;;;;;;;43.57;18.23;101885.03;3970529;32;15031199;-80
2021/07/16 11:45:32;;;;;;;4.15;2.00;;;;;;;43.83;18.03;101898.53;3982265;32;15022846;-77
2021/07/16 11:48:00;;;;;;;4.85;2.67;;;;;;;43.83;18.03;101898.53;4433235;32;20046;-76
2021/07/16 11:50:26;;;;;;;8.10;2.42;;;;;;;43.81;17.88;101890.28;4433125;32;20034;-79
2021/07/16 11:52:54;;;;;;;5.18;2.42;;;;;;;44.47;17.40;101887.56;4426619;32;21550;-78
2021/07/16 11:55:22;;;;;;;6.35;2.53;;;;;;;45.09;16.80;101888.22;4430146;32;20030;-78
2021/07/16 12:13:24;;;;;;;5.57;2.70;;;;;;;43.73;17.93;101894.91;3949778;32;15014680;-79
2021/07/16 12:16:07;;;;;;;3.40;2.10;;;;;;;43.73;17.93;101894.91;4402290;32;21875;-77
2021/07/16 12:18:36;;;;;;;3.85;2.08;;;;;;;44.59;17.11;101891.22;4402285;32;20095;-77
2021/07/16 12:21:04;;;;;;;3.72;2.12;;;;;;;44.35;17.33;101887.63;4400580;32;20184;-77
2021/07/16 12:23:30;;;;;;;3.72;1.62;;;;;;;44.75;17.10;101892.97;4404731;32;20367;-77
2021/07/16 12:26:18;;;;;;;6.97;1.70;;;;;;;43.27;17.80;101900.91;4402038;32;20555;-77